KGPI

Glacier Park International Airport

Kalispell, Montana, USA
METAR KGPI 252155Z 15008KT 10SM CLR 26/11 A2984 RMK AO2 SLP094 T02560111
Observed Flight Rules
May-25 @ 21:55 UTC (40 minutes ago) Visual Flight Rules
Wind Visibility Clouds
150° at 8 knots 10 miles
  • Clear skies
Temperatures Readings
Current 26°C / 79°F
Dewpoint 11°C / 52°F
Humidity 39%
Altimeter 29.84" Hg
Pressure 1009.4 hPa
Elevation 908
METAR KGPI 252155Z 15008KT 10SM CLR 26/11 A2984 RMK AO2 SLP094 T02560111
Observed Flight Rules
May-25 @ 21:55 UTC
(40 minutes ago)
VFR
Wind Visibility
150° at 8 knots 10 miles
Clouds
  • Clear skies
Temperature Dewpoint
26°C / 79°F 11°C / 52°F
Humidity Altimeter Pressure
39% 29.84" Hg 1009.4 hPa